Terminal Aerodrome Forecast
Issued by NWS Knoxville/Tri Cities, TN

Home | Current Version | Previous Version | Text Only | Print | Product List | Glossary On
Versions: 1 2 3 4 5 6 7 8 9 10 11 12 13 14 15 16 17 18 19 20 21 22 23 24 25 26 27 28
000
FTUS44 KMRX 270530
TAFTYS
TAF
KTYS 270530Z 2706/2806 22006KT P6SM BKN070 BKN250
     FM271500 22008G16KT P6SM SCT040 BKN250
     FM271900 22012G19KT P6SM VCTS SCT060CB SCT100 BKN150
     FM280100 21006KT P6SM VCTS SCT040CB BKN150=

USA.gov is the U.S. government's official web portal to all federal, state and local government web resources and services.